createdAt,value
2018-02-23T00:00:58.355Z,64.02
2018-02-23T00:03:28.381Z,63.96
2018-02-23T00:06:00.913Z,64.08
2018-02-23T00:08:33.305Z,64.19
2018-02-23T00:11:04.460Z,64.17
2018-02-23T00:13:34.764Z,64.03
2018-02-23T00:16:04.855Z,64.03
2018-02-23T00:18:34.271Z,64.03
2018-02-23T00:21:04.205Z,64.20
2018-02-23T00:23:34.254Z,64.27
2018-02-23T00:26:04.982Z,64.26
2018-02-23T00:28:35.610Z,64.46
2018-02-23T00:31:05.266Z,64.25
2018-02-23T00:33:34.732Z,63.86
2018-02-23T00:36:04.443Z,63.74
2018-02-23T00:38:33.976Z,63.79
2018-02-23T00:41:03.696Z,63.53
2018-02-23T00:43:34.062Z,63.39
2018-02-23T00:46:04.338Z,63.66
2018-02-23T00:48:34.106Z,63.82
2018-02-23T00:51:04.169Z,63.80
2018-02-23T00:53:33.617Z,63.84
2018-02-23T00:56:03.610Z,64.11
2018-02-23T00:58:33.737Z,64.14
2018-02-23T01:01:03.408Z,64.11
2018-02-23T01:03:33.159Z,64.09
2018-02-23T01:06:03.008Z,64.18
2018-02-23T01:08:34.492Z,64.21
2018-02-23T01:11:04.630Z,64.07
2018-02-23T01:13:34.761Z,64.26
2018-02-23T01:16:04.679Z,64.24
2018-02-23T01:18:34.549Z,64.40
2018-02-23T01:21:04.088Z,64.43
2018-02-23T01:23:34.316Z,64.45
2018-02-23T01:26:04.151Z,64.46
2018-02-23T01:28:34.030Z,64.31
2018-02-23T01:31:05.051Z,64.28
2018-02-23T01:33:34.831Z,64.33
2018-02-23T01:36:04.599Z,64.38
2018-02-23T01:38:36.534Z,64.38
2018-02-23T01:41:07.980Z,64.54
2018-02-23T01:43:39.304Z,64.58
2018-02-23T01:46:09.511Z,64.62
2018-02-23T01:48:39.956Z,64.62
2018-02-23T01:51:12.736Z,64.54
2018-02-23T01:53:43.425Z,64.38
2018-02-23T01:56:14.324Z,64.55
2018-02-23T01:58:44.322Z,64.76
2018-02-23T02:01:16.502Z,64.80
2018-02-23T02:03:46.371Z,64.96
2018-02-23T02:06:15.996Z,64.96
2018-02-23T02:08:45.672Z,64.95
2018-02-23T02:11:16.232Z,64.87
2018-02-23T02:13:46.045Z,64.94
2018-02-23T02:16:16.343Z,65.11
2018-02-23T02:18:46.452Z,65.36
2018-02-23T02:21:17.599Z,65.47
2018-02-23T02:23:47.534Z,65.28
2018-02-23T02:26:17.466Z,65.25
2018-02-23T02:28:47.294Z,65.44
2018-02-23T02:31:16.722Z,65.59
2018-02-23T02:33:46.421Z,65.45
2018-02-23T02:36:17.294Z,65.70
2018-02-23T02:38:47.066Z,65.69
2018-02-23T02:41:17.177Z,65.56
2018-02-23T02:43:46.779Z,65.71
2018-02-23T02:46:17.389Z,65.78
2018-02-23T02:48:47.036Z,65.87
2018-02-23T02:51:16.474Z,65.99
2018-02-23T02:53:46.252Z,66.06
2018-02-23T02:56:16.135Z,66.31
2018-02-23T02:58:46.329Z,66.13
2018-02-23T03:01:15.751Z,65.77
2018-02-23T03:03:45.328Z,65.60
2018-02-23T03:06:15.691Z,65.60
2018-02-23T03:08:45.626Z,65.74
2018-02-23T03:11:15.056Z,65.65
2018-02-23T03:13:45.019Z,65.47
2018-02-23T03:16:14.855Z,65.32
2018-02-23T03:18:44.406Z,65.72
2018-02-23T03:21:14.683Z,65.80
2018-02-23T03:23:44.848Z,65.81
2018-02-23T03:26:14.764Z,65.72
2018-02-23T03:28:44.729Z,65.81
2018-02-23T03:31:16.107Z,65.86
2018-02-23T03:33:47.978Z,66.05
2018-02-23T03:36:18.004Z,66.07
2018-02-23T03:38:47.793Z,66.35
2018-02-23T03:41:17.734Z,66.41
2018-02-23T03:43:48.049Z,66.38
2018-02-23T03:46:17.916Z,66.59
2018-02-23T03:48:47.646Z,66.38
2018-02-23T03:51:17.820Z,66.67
2018-02-23T03:53:47.464Z,66.48
2018-02-23T03:56:17.380Z,66.58
2018-02-23T03:58:47.800Z,66.41
2018-02-23T04:01:17.649Z,66.69
2018-02-23T04:03:47.365Z,66.58
2018-02-23T04:06:18.432Z,66.59
2018-02-23T04:08:48.416Z,66.57
2018-02-23T04:11:19.051Z,66.95
2018-02-23T04:13:49.245Z,66.88
2018-02-23T04:16:18.803Z,67.34
2018-02-23T04:18:48.428Z,66.98
2018-02-23T04:21:18.061Z,66.82
2018-02-23T04:23:47.849Z,66.95
2018-02-23T04:26:17.668Z,67.10
2018-02-23T04:28:48.039Z,67.14
2018-02-23T04:31:18.051Z,67.66
2018-02-23T04:33:48.211Z,67.47
2018-02-23T04:36:18.373Z,67.56
2018-02-23T04:38:48.122Z,67.38
2018-02-23T04:41:18.754Z,67.38
2018-02-23T04:43:48.442Z,67.37
2018-02-23T04:46:18.241Z,67.51
2018-02-23T04:48:48.126Z,67.26
2018-02-23T04:51:18.666Z,67.45
2018-02-23T04:53:48.414Z,67.57
2018-02-23T04:56:18.483Z,67.56
2018-02-23T04:58:48.231Z,67.67
2018-02-23T05:01:18.145Z,67.90
2018-02-23T05:03:48.027Z,67.75
2018-02-23T05:06:17.897Z,67.87
2018-02-23T05:08:48.017Z,67.99
2018-02-23T05:11:17.797Z,68.01
2018-02-23T05:13:47.636Z,68.21
2018-02-23T05:16:17.891Z,68.03
2018-02-23T05:18:47.773Z,68.03
2018-02-23T05:21:17.504Z,68.17
2018-02-23T05:23:47.242Z,68.20
2018-02-23T05:26:17.112Z,68.20
2018-02-23T05:28:46.971Z,68.18
2018-02-23T05:31:17.220Z,68.72
2018-02-23T05:33:46.831Z,68.58
2018-02-23T05:36:16.771Z,68.50
2018-02-23T05:38:47.316Z,68.28
2018-02-23T05:41:17.263Z,68.09
2018-02-23T05:43:46.800Z,68.10
2018-02-23T05:46:16.538Z,68.23
2018-02-23T05:48:46.394Z,68.41
2018-02-23T05:51:16.773Z,68.44
2018-02-23T05:53:52.305Z,68.44
2018-02-23T05:56:22.036Z,68.57
2018-02-23T05:58:51.583Z,68.61
2018-02-23T06:01:21.683Z,68.70
2018-02-23T06:03:51.125Z,68.93
2018-02-23T06:06:20.554Z,68.59
2018-02-23T06:08:50.938Z,68.23
2018-02-23T06:11:21.485Z,68.71
2018-02-23T06:13:51.377Z,68.89
2018-02-23T06:16:26.566Z,68.70
2018-02-23T06:18:58.788Z,68.58
2018-02-23T06:21:29.127Z,68.78
2018-02-23T06:24:00.957Z,69.08
2018-02-23T06:26:30.823Z,68.67
2018-02-23T06:29:01.251Z,68.86
2018-02-23T06:31:31.064Z,68.71
2018-02-23T06:34:00.590Z,68.67
2018-02-23T06:36:30.609Z,68.45
2018-02-23T06:39:01.151Z,68.72
2018-02-23T06:41:30.827Z,68.52
2018-02-23T06:44:00.957Z,68.32
2018-02-23T06:46:30.411Z,68.03
2018-02-23T06:48:59.918Z,67.84
2018-02-23T06:51:30.078Z,67.98
2018-02-23T06:54:04.131Z,67.91
2018-02-23T06:56:34.018Z,68.31
2018-02-23T06:59:03.459Z,68.23
2018-02-23T07:01:33.520Z,68.18
2018-02-23T07:04:03.345Z,67.86
2018-02-23T07:06:33.336Z,68.14
2018-02-23T07:09:03.106Z,68.01
2018-02-23T07:11:33.337Z,67.96
2018-02-23T07:14:03.774Z,67.90
2018-02-23T07:16:33.479Z,67.82
2018-02-23T07:19:02.991Z,67.79
2018-02-23T07:21:33.068Z,67.40
2018-02-23T07:24:04.173Z,66.99
2018-02-23T07:26:34.303Z,67.20
2018-02-23T07:29:04.600Z,66.81
2018-02-23T07:31:34.363Z,66.90
2018-02-23T07:34:05.063Z,66.77
2018-02-23T07:36:35.149Z,66.46
2018-02-23T07:39:05.866Z,66.45
2018-02-23T07:41:35.944Z,66.20
2018-02-23T07:44:05.548Z,66.34
2018-02-23T07:46:36.205Z,66.51
2018-02-23T07:49:07.061Z,66.26
2018-02-23T07:51:36.809Z,66.00
2018-02-23T07:54:06.772Z,65.93
2018-02-23T07:56:36.561Z,65.51
2018-02-23T07:59:06.488Z,65.38
2018-02-23T08:01:36.344Z,64.71
2018-02-23T08:04:06.211Z,64.84
2018-02-23T08:06:36.709Z,64.69
2018-02-23T08:09:06.739Z,64.84
2018-02-23T08:11:36.306Z,64.83
2018-02-23T08:14:05.873Z,64.70
2018-02-23T08:16:35.914Z,64.71
2018-02-23T08:19:05.944Z,64.25
2018-02-23T08:21:35.783Z,64.69
2018-02-23T08:24:05.483Z,64.05
2018-02-23T08:26:35.635Z,64.47
2018-02-23T08:29:05.787Z,64.57
2018-02-23T08:31:35.494Z,63.96
2018-02-23T08:34:05.698Z,63.13
2018-02-23T08:36:35.777Z,62.67
2018-02-23T08:39:05.526Z,62.40
2018-02-23T08:41:35.071Z,62.33
2018-02-23T08:44:04.536Z,62.26
2018-02-23T08:46:34.234Z,62.09
2018-02-23T08:49:04.318Z,61.75
2018-02-23T08:51:34.181Z,61.95
2018-02-23T08:54:03.993Z,61.72
2018-02-23T08:56:33.944Z,61.53
2018-02-23T08:59:03.443Z,61.31
2018-02-23T09:01:32.954Z,61.28
2018-02-23T09:04:02.915Z,60.41
2018-02-23T09:06:32.841Z,60.35
2018-02-23T09:09:02.371Z,59.94
2018-02-23T09:11:33.707Z,59.77
2018-02-23T09:14:03.365Z,59.68
2018-02-23T09:16:34.307Z,59.20
2018-02-23T09:19:03.881Z,59.09
2018-02-23T09:21:33.547Z,58.51
2018-02-23T09:24:03.375Z,57.31
2018-02-23T09:26:33.908Z,56.38
2018-02-23T09:29:03.959Z,55.41
2018-02-23T09:31:34.190Z,54.27
2018-02-23T09:35:06.699Z,54.04
2018-02-23T09:37:36.895Z,54.14
2018-02-23T09:40:07.627Z,53.78
2018-02-23T09:42:37.246Z,53.71
2018-02-23T09:45:07.204Z,53.55
2018-02-23T09:47:37.162Z,52.37
2018-02-23T09:50:06.680Z,51.46
2018-02-23T09:52:36.763Z,50.92
2018-02-23T09:55:06.656Z,50.26
2018-02-23T09:57:36.953Z,50.76
2018-02-23T10:00:07.276Z,51.18
2018-02-23T10:02:37.212Z,51.08
2018-02-23T10:05:07.252Z,51.03
2018-02-23T10:07:37.643Z,50.12
2018-02-23T10:10:07.416Z,49.62
2018-02-23T10:12:37.237Z,49.31
2018-02-23T10:15:06.828Z,49.29
2018-02-23T10:17:36.263Z,48.80
2018-02-23T10:20:06.510Z,48.66
2018-02-23T10:22:35.986Z,47.59
2018-02-23T10:25:05.115Z,47.27
2018-02-23T10:27:35.056Z,47.04
2018-02-23T10:30:05.182Z,45.12
2018-02-23T10:32:35.079Z,44.94
2018-02-23T10:35:05.150Z,45.46
2018-02-23T10:37:34.626Z,44.18
2018-02-23T10:40:04.498Z,44.88
2018-02-23T10:42:34.084Z,45.71
2018-02-23T10:45:03.666Z,45.49
2018-02-23T10:47:33.525Z,44.08
2018-02-23T10:50:03.979Z,44.35
2018-02-23T10:52:33.960Z,44.04
2018-02-23T10:55:03.372Z,43.39
2018-02-23T10:57:32.909Z,43.38
2018-02-23T11:00:03.880Z,42.54
2018-02-23T11:02:33.471Z,42.66
2018-02-23T11:05:03.066Z,43.27
2018-02-23T11:07:32.596Z,43.51
2018-02-23T11:10:02.034Z,43.63
2018-02-23T11:12:32.514Z,43.55
2018-02-23T11:15:02.219Z,43.85
2018-02-23T11:17:31.795Z,44.20
2018-02-23T11:20:01.515Z,43.92
2018-02-23T11:22:30.947Z,44.21
2018-02-23T11:25:01.425Z,44.82
2018-02-23T11:27:31.315Z,44.90
2018-02-23T11:30:02.131Z,44.56
2018-02-23T11:32:31.666Z,44.49
2018-02-23T11:35:01.113Z,45.03
2018-02-23T11:37:30.546Z,45.15
2018-02-23T11:40:01.005Z,44.47
2018-02-23T11:42:30.862Z,44.61
2018-02-23T11:45:00.368Z,43.36
2018-02-23T11:47:30.073Z,42.68
2018-02-23T11:49:59.539Z,43.10
2018-02-23T11:52:29.076Z,42.47
2018-02-23T11:55:00.273Z,42.43
2018-02-23T11:57:34.641Z,42.83
2018-02-23T12:00:05.275Z,42.79
2018-02-23T12:02:36.004Z,42.80
2018-02-23T12:05:06.625Z,42.69
2018-02-23T12:07:36.354Z,42.04
2018-02-23T12:10:06.218Z,41.04
2018-02-23T12:12:36.345Z,39.38
2018-02-23T12:15:05.992Z,39.37
2018-02-23T12:17:35.745Z,39.59
2018-02-23T12:20:05.302Z,40.75
2018-02-23T12:22:34.683Z,41.56
2018-02-23T12:25:04.220Z,41.47
2018-02-23T12:27:33.732Z,41.21
2018-02-23T12:30:03.702Z,41.05
2018-02-23T12:32:33.590Z,40.38
2018-02-23T12:35:03.141Z,39.04
2018-02-23T12:37:32.594Z,39.04
2018-02-23T12:40:02.157Z,38.70
2018-02-23T12:42:31.702Z,39.10
2018-02-23T12:45:01.738Z,38.43
2018-02-23T12:47:31.871Z,38.43
2018-02-23T12:50:02.572Z,39.36
2018-02-23T12:52:32.110Z,40.36
2018-02-23T12:55:02.285Z,41.61
2018-02-23T12:57:32.820Z,39.77
2018-02-23T13:00:02.679Z,38.88
2018-02-23T13:02:33.317Z,39.44
2018-02-23T13:05:03.027Z,39.91
2018-02-23T13:07:33.161Z,39.19
2018-02-23T13:10:03.257Z,39.45
2018-02-23T13:12:33.114Z,40.08
2018-02-23T13:15:06.803Z,39.21
2018-02-23T13:17:36.620Z,38.97
2018-02-23T13:20:06.135Z,39.16
2018-02-23T13:22:35.559Z,39.04
2018-02-23T13:25:05.625Z,38.71
2018-02-23T13:27:35.079Z,38.34
2018-02-23T13:30:04.669Z,38.81
2018-02-23T13:32:34.806Z,39.52
2018-02-23T13:35:04.533Z,39.98
2018-02-23T13:37:34.085Z,40.04
2018-02-23T13:40:05.806Z,39.16
2018-02-23T13:42:37.032Z,39.60
2018-02-23T13:45:07.825Z,40.23
2018-02-23T13:47:38.373Z,39.83
2018-02-23T13:50:09.711Z,38.89
2018-02-23T13:52:39.247Z,39.46
2018-02-23T13:55:10.153Z,39.89
2018-02-23T13:57:39.682Z,39.83
2018-02-23T14:00:09.407Z,40.46
2018-02-23T14:02:39.183Z,41.33
2018-02-23T14:05:09.822Z,40.98
2018-02-23T14:07:43.797Z,40.94
2018-02-23T14:10:15.635Z,40.72
2018-02-23T14:12:45.701Z,40.12
2018-02-23T14:15:15.537Z,39.83
2018-02-23T14:17:46.011Z,40.15
2018-02-23T14:20:17.426Z,40.28
2018-02-23T14:22:47.377Z,40.26
2018-02-23T14:25:17.306Z,40.68
2018-02-23T14:27:47.235Z,41.23
2018-02-23T14:30:16.832Z,41.61
2018-02-23T14:32:47.595Z,42.65
2018-02-23T14:35:18.111Z,43.30
2018-02-23T14:37:48.745Z,43.94
2018-02-23T14:40:18.853Z,44.15
2018-02-23T14:42:48.340Z,43.85
2018-02-23T14:45:18.306Z,43.67
2018-02-23T14:47:48.535Z,44.00
2018-02-23T14:50:29.019Z,43.77
2018-02-23T14:52:59.279Z,44.46
2018-02-23T14:55:29.477Z,45.02
2018-02-23T14:57:59.458Z,45.28
2018-02-23T15:00:31.200Z,44.86
2018-02-23T15:03:02.194Z,44.68
2018-02-23T15:05:32.145Z,43.80
2018-02-23T15:08:01.986Z,43.04
2018-02-23T15:10:31.740Z,42.02
2018-02-23T15:13:02.575Z,41.98
2018-02-23T15:15:32.366Z,43.40
2018-02-23T15:18:01.811Z,44.65
2018-02-23T15:20:32.739Z,44.98
2018-02-23T15:23:03.076Z,45.32
2018-02-23T15:25:32.542Z,45.15
2018-02-23T15:28:02.258Z,45.51
2018-02-23T15:30:41.590Z,45.62
2018-02-23T15:33:12.432Z,46.13
2018-02-23T15:35:43.534Z,46.27
2018-02-23T15:38:13.163Z,46.24
2018-02-23T15:40:45.498Z,46.41
2018-02-23T15:43:15.145Z,46.86
2018-02-23T15:45:44.690Z,46.82
2018-02-23T15:48:16.463Z,47.12
2018-02-23T15:50:46.118Z,47.49
2018-02-23T15:53:15.730Z,47.57
2018-02-23T15:55:45.631Z,47.65
2018-02-23T15:58:15.513Z,47.50
2018-02-23T16:00:47.343Z,47.27
2018-02-23T16:03:17.549Z,47.46
2018-02-23T16:05:47.168Z,47.62
2018-02-23T16:08:16.941Z,47.82
2018-02-23T16:10:46.778Z,47.60
2018-02-23T16:13:18.675Z,47.84
2018-02-23T16:15:48.948Z,48.47
2018-02-23T16:18:18.820Z,48.72
2018-02-23T16:20:48.256Z,48.58
2018-02-23T16:23:17.963Z,49.13
2018-02-23T16:25:47.738Z,49.43
2018-02-23T16:28:17.212Z,49.81
2018-02-23T16:30:46.781Z,49.78
2018-02-23T16:33:16.567Z,49.79
2018-02-23T16:35:46.623Z,49.91
2018-02-23T16:38:16.763Z,49.67
2018-02-23T16:40:46.446Z,49.99
2018-02-23T16:43:15.969Z,50.31
2018-02-23T16:45:45.935Z,50.52
2018-02-23T16:48:16.505Z,50.77
2018-02-23T16:50:46.232Z,50.84
2018-02-23T16:53:16.679Z,50.92
2018-02-23T16:55:46.548Z,51.13
2018-02-23T16:58:16.103Z,51.61
2018-02-23T17:00:46.894Z,51.87
2018-02-23T17:03:17.465Z,52.44
2018-02-23T17:05:47.730Z,52.71
2018-02-23T17:08:17.897Z,53.21
2018-02-23T17:10:48.472Z,53.74
2018-02-23T17:13:18.946Z,54.11
2018-02-23T17:15:48.804Z,54.05
2018-02-23T17:18:18.728Z,54.30
2018-02-23T17:20:48.639Z,54.40
2018-02-23T17:23:18.741Z,54.44
2018-02-23T17:25:48.725Z,54.73
2018-02-23T17:28:18.198Z,54.87
2018-02-23T17:30:47.649Z,55.15
2018-02-23T17:33:18.637Z,55.12
2018-02-23T17:35:48.173Z,55.42
2018-02-23T17:38:17.629Z,55.46
2018-02-23T17:40:47.870Z,55.61
2018-02-23T17:43:17.413Z,55.59
2018-02-23T17:45:46.947Z,55.69
2018-02-23T17:48:16.988Z,55.84
2018-02-23T17:50:46.693Z,55.84
2018-02-23T17:53:17.310Z,55.78
2018-02-23T17:55:47.260Z,55.70
2018-02-23T17:58:16.868Z,55.85
2018-02-23T18:00:47.439Z,55.55
2018-02-23T18:03:17.853Z,55.24
2018-02-23T18:05:48.149Z,55.30
2018-02-23T18:08:18.272Z,54.92
2018-02-23T18:10:47.840Z,54.99
2018-02-23T18:13:17.601Z,54.54
2018-02-23T18:15:47.539Z,54.35
2018-02-23T18:18:17.259Z,54.56
2018-02-23T18:20:46.803Z,54.27
2018-02-23T18:23:16.796Z,54.11
2018-02-23T18:25:46.246Z,54.00
2018-02-23T18:28:16.540Z,54.05
2018-02-23T18:30:46.484Z,54.06
2018-02-23T18:33:17.105Z,54.03
2018-02-23T18:35:47.631Z,54.05
2018-02-23T18:38:18.701Z,54.31
2018-02-23T18:40:48.577Z,54.18
2018-02-23T18:43:18.926Z,54.28
2018-02-23T18:45:48.687Z,54.37
2018-02-23T18:48:18.134Z,54.28
2018-02-23T18:50:48.926Z,54.37
2018-02-23T18:53:18.519Z,54.61
2018-02-23T18:55:48.050Z,54.84
2018-02-23T18:58:18.658Z,54.67
2018-02-23T19:00:49.764Z,54.50
2018-02-23T19:03:19.790Z,54.54
2018-02-23T19:05:49.467Z,54.36
2018-02-23T19:08:19.120Z,54.74
2018-02-23T19:10:48.695Z,54.69
2018-02-23T19:13:18.399Z,54.62
2018-02-23T19:15:48.174Z,54.36
2018-02-23T19:18:18.632Z,54.68
2018-02-23T19:20:50.051Z,54.83
2018-02-23T19:23:21.279Z,54.61
2018-02-23T19:25:51.144Z,54.48
2018-02-23T19:28:21.630Z,54.82
2018-02-23T19:30:52.212Z,54.83
2018-02-23T19:33:21.926Z,54.75
2018-02-23T19:35:52.178Z,54.92
2018-02-23T19:38:22.745Z,55.18
2018-02-23T19:40:52.290Z,54.92
2018-02-23T19:43:22.159Z,54.99
2018-02-23T19:45:51.745Z,55.13
2018-02-23T19:48:21.471Z,55.04
2018-02-23T19:50:51.289Z,55.05
2018-02-23T19:53:20.960Z,55.05
2018-02-23T19:55:50.715Z,55.35
2018-02-23T19:58:20.733Z,55.30
2018-02-23T20:00:51.243Z,55.24
2018-02-23T20:03:20.822Z,55.52
2018-02-23T20:05:50.739Z,55.78
2018-02-23T20:08:21.082Z,55.71
2018-02-23T20:10:50.602Z,55.96
2018-02-23T20:13:20.589Z,56.45
2018-02-23T20:15:50.202Z,56.66
2018-02-23T20:18:19.807Z,56.78
2018-02-23T20:20:50.252Z,57.08
2018-02-23T20:23:19.850Z,57.43
2018-02-23T20:25:49.651Z,57.11
2018-02-23T20:28:19.153Z,57.26
2018-02-23T20:30:48.810Z,57.99
2018-02-23T20:33:18.684Z,58.29
2018-02-23T20:35:48.371Z,58.47
2018-02-23T20:38:17.862Z,58.51
2018-02-23T20:40:47.918Z,58.39
2018-02-23T20:43:17.579Z,58.33
2018-02-23T20:45:47.200Z,58.32
2018-02-23T20:48:17.157Z,58.64
2018-02-23T20:50:46.719Z,58.68
2018-02-23T20:53:16.336Z,58.69
2018-02-23T20:55:46.253Z,58.73
2018-02-23T20:58:15.743Z,58.55
2018-02-23T21:00:45.690Z,58.82
2018-02-23T21:03:16.369Z,59.00
2018-02-23T21:05:45.971Z,59.76
2018-02-23T21:08:15.606Z,59.33
2018-02-23T21:10:45.798Z,59.26
2018-02-23T21:13:15.810Z,59.02
2018-02-23T21:15:45.844Z,58.79
2018-02-23T21:18:15.731Z,58.79
2018-02-23T21:20:45.224Z,58.50
2018-02-23T21:23:14.700Z,58.24
2018-02-23T21:25:44.240Z,58.35
2018-02-23T21:28:13.839Z,58.45
2018-02-23T21:30:43.836Z,58.25
2018-02-23T21:33:13.326Z,58.18
2018-02-23T21:35:43.031Z,58.18
2018-02-23T21:38:12.699Z,58.59
2018-02-23T21:40:42.521Z,58.61
2018-02-23T21:43:12.025Z,58.21
2018-02-23T21:45:41.878Z,58.61
2018-02-23T21:48:11.428Z,58.46
2018-02-23T21:50:41.143Z,58.58
2018-02-23T21:53:10.695Z,58.25
2018-02-23T21:55:40.182Z,58.14
2018-02-23T21:58:10.744Z,58.19
2018-02-23T22:00:40.198Z,57.91
2018-02-23T22:03:10.707Z,58.01
2018-02-23T22:05:40.987Z,58.07
2018-02-23T22:08:11.182Z,57.59
2018-02-23T22:10:40.969Z,57.34
2018-02-23T22:13:11.421Z,57.20
2018-02-23T22:15:41.152Z,56.86
2018-02-23T22:18:10.732Z,56.84
2018-02-23T22:20:40.259Z,57.24
2018-02-23T22:23:10.590Z,57.32
2018-02-23T22:25:41.187Z,57.25
2018-02-23T22:28:11.712Z,57.21
2018-02-23T22:30:42.482Z,57.08
2018-02-23T22:33:12.174Z,57.13
2018-02-23T22:35:41.835Z,57.08
2018-02-23T22:38:11.878Z,57.23
2018-02-23T22:40:41.512Z,56.99
2018-02-23T22:43:11.959Z,56.96
2018-02-23T22:45:42.240Z,57.33
2018-02-23T22:48:11.765Z,57.47
2018-02-23T22:50:41.354Z,57.89
2018-02-23T22:53:11.154Z,58.05
2018-02-23T22:55:40.882Z,58.13
2018-02-23T22:58:10.449Z,58.32
2018-02-23T23:00:40.202Z,58.41
2018-02-23T23:03:09.701Z,58.74
2018-02-23T23:05:39.191Z,58.85
2018-02-23T23:08:09.006Z,59.02
2018-02-23T23:10:38.906Z,58.92
2018-02-23T23:13:09.508Z,59.15
2018-02-23T23:15:39.284Z,59.15
2018-02-23T23:18:09.589Z,59.03
2018-02-23T23:20:39.518Z,58.57
2018-02-23T23:23:09.925Z,58.69
2018-02-23T23:25:39.417Z,58.98
2018-02-23T23:28:09.332Z,58.96
2018-02-23T23:30:39.592Z,59.04
2018-02-23T23:33:09.388Z,59.33
2018-02-23T23:35:38.846Z,59.44
2018-02-23T23:38:08.701Z,59.56
2018-02-23T23:40:39.146Z,59.28
2018-02-23T23:43:09.151Z,59.06
2018-02-23T23:45:39.495Z,59.27
2018-02-23T23:48:09.594Z,59.53
2018-02-23T23:50:39.159Z,59.43
2018-02-23T23:53:08.678Z,59.12
2018-02-23T23:55:38.965Z,59.37
2018-02-23T23:58:08.990Z,59.30
